createdAt,value
2023-02-22T06:17:49.889Z,100
2023-02-22T06:32:50.622Z,100
2023-02-22T06:47:50.455Z,100
2023-02-22T07:02:52.172Z,100
2023-02-22T07:17:52.474Z,100
2023-02-22T07:32:56.189Z,100
2023-02-22T07:47:53.991Z,100
2023-02-22T08:02:54.072Z,100
2023-02-22T08:17:54.734Z,100
2023-02-22T08:32:56.421Z,100
2023-02-22T08:48:00.498Z,100
2023-02-22T09:02:57.084Z,100
2023-02-22T09:17:56.815Z,100
2023-02-22T09:32:58.855Z,100
2023-02-22T09:48:22.978Z,100
2023-02-22T10:03:00.335Z,100
2023-02-22T10:18:02.427Z,100
2023-02-22T10:33:03.571Z,100
2023-02-22T10:48:02.610Z,100
2023-02-22T11:03:01.923Z,91.5
2023-02-22T11:18:09.140Z,91.5
2023-02-22T11:33:06.088Z,63.2
2023-02-22T11:48:06.311Z,58.1
2023-02-22T12:03:21.678Z,49.2
2023-02-22T12:18:08.060Z,56.9
2023-02-22T12:33:07.264Z,56.9
2023-02-22T12:48:07.259Z,55.4
2023-02-22T13:03:07.244Z,59.1
2023-02-22T13:18:16.453Z,59.1
2023-02-22T13:33:13.699Z,53.2
2023-02-22T13:48:10.207Z,51.3
2023-02-22T14:18:21.275Z,51.3
2023-02-22T15:00:09.121Z,49.7
2023-02-22T15:03:12.085Z,53.4
2023-02-22T15:18:19.128Z,53.4
2023-02-22T15:33:13.340Z,67
2023-02-22T15:48:14.933Z,77.2
2023-02-22T16:03:35.557Z,77.2
2023-02-22T16:18:18.834Z,90.5
2023-02-22T16:33:16.357Z,100
2023-02-22T16:48:16.903Z,100
2023-02-22T17:03:17.325Z,100
2023-02-22T17:18:19.804Z,100
2023-02-22T17:33:18.539Z,100
2023-02-22T17:48:19.399Z,100
2023-02-22T18:03:19.946Z,100
